createdAt,value
2022-08-07T00:02:41.198Z,99960.81
2022-08-07T00:05:03.993Z,99960.31
2022-08-07T00:07:40.303Z,99963.09
2022-08-07T00:10:27.221Z,99969.88
2022-08-07T00:13:02.068Z,99955.63
2022-08-07T00:15:38.253Z,99955.94
2022-08-07T00:18:19.220Z,99947.66
2022-08-07T00:20:50.737Z,99953.66
2022-08-07T00:23:21.078Z,99959.03
2022-08-07T00:26:00.445Z,99936.44
2022-08-07T00:28:33.936Z,99942.75
2022-08-07T00:31:06.163Z,99945.69
2022-08-07T00:33:36.171Z,99936.41
2022-08-07T00:36:07.208Z,99921.47
2022-08-07T00:38:37.476Z,99922.44
2022-08-07T00:41:09.839Z,99892.88
2022-08-07T00:44:00.411Z,99878.44
2022-08-07T00:46:27.541Z,99933.59
2022-08-07T00:48:56.112Z,99931.28
2022-08-07T00:51:27.876Z,99932.13
2022-08-07T00:54:15.501Z,99916.88
2022-08-07T00:56:53.235Z,99898.84
2022-08-07T00:59:32.698Z,99927.16
2022-08-07T01:02:14.014Z,99882.09
2022-08-07T01:04:58.414Z,99918.19
2022-08-07T01:07:31.202Z,99881.03
2022-08-07T01:10:07.210Z,99908.47
2022-08-07T01:12:54.101Z,99886.28
2022-08-07T01:16:00.470Z,99904.50
2022-08-07T01:18:16.957Z,99899.97
2022-08-07T01:20:57.742Z,99912.53
2022-08-07T01:23:39.473Z,99902.75
2022-08-07T01:26:16.727Z,99900.47
2022-08-07T01:28:51.474Z,99878.50
2022-08-07T01:31:42.414Z,99903.19
2022-08-07T01:34:14.833Z,99901.50
2022-08-07T01:36:52.453Z,99900.13
2022-08-07T01:39:40.847Z,99891.66
2022-08-07T01:42:38.329Z,99837.19
2022-08-07T01:45:17.830Z,99886.13
2022-08-07T01:48:29.735Z,99883.63
2022-08-07T01:50:43.057Z,99892.75
2022-08-07T01:53:21.101Z,99883.91
2022-08-07T01:56:01.955Z,99842.69
2022-08-07T01:58:40.875Z,99875.25
2022-08-07T02:01:25.372Z,99879.91
2022-08-07T02:04:07.933Z,99877.47
2022-08-07T02:06:39.383Z,99851.41
2022-08-07T02:09:51.690Z,99872.66
2022-08-07T02:12:17.730Z,99876.91
2022-08-07T02:14:58.321Z,99879.69
2022-08-07T02:17:40.823Z,99871.09
2022-08-07T02:20:23.399Z,99850.91
2022-08-07T02:22:59.586Z,99869.59
2022-08-07T02:26:10.351Z,99861.28
2022-08-07T02:28:24.549Z,99855.97
2022-08-07T02:30:57.787Z,99857.25
2022-08-07T02:33:41.850Z,99860.09
2022-08-07T02:36:28.341Z,99846.50
2022-08-07T02:39:09.263Z,99860.75
2022-08-07T02:41:54.329Z,99848.75
2022-08-07T02:44:34.402Z,99857.00
2022-08-07T02:47:08.555Z,99860.03
2022-08-07T02:49:58.676Z,99860.69
2022-08-07T02:52:35.376Z,99862.31
2022-08-07T02:55:27.441Z,99856.66
2022-08-07T02:58:03.158Z,99846.75
2022-08-07T03:00:36.136Z,99838.13
2022-08-07T03:03:13.616Z,99851.47
2022-08-07T03:05:48.035Z,99855.38
2022-08-07T03:08:19.265Z,99852.72
2022-08-07T03:10:57.620Z,99857.72
2022-08-07T03:13:39.191Z,99858.44
2022-08-07T03:16:27.667Z,99858.78
2022-08-07T03:18:58.008Z,99856.66
2022-08-07T03:21:27.591Z,99838.13
2022-08-07T03:24:18.289Z,99841.78
2022-08-07T03:26:58.079Z,99840.44
2022-08-07T03:29:33.926Z,99847.22
2022-08-07T03:32:13.297Z,99841.78
2022-08-07T03:34:47.267Z,99853.19
2022-08-07T03:37:37.516Z,99863.47
2022-08-07T03:40:22.970Z,99862.88
2022-08-07T03:42:52.779Z,99833.94
2022-08-07T03:45:30.598Z,99868.84
2022-08-07T03:48:10.120Z,99859.53
2022-08-07T03:50:43.183Z,99859.88
2022-08-07T03:53:30.270Z,99863.84
2022-08-07T03:56:33.627Z,99846.31
2022-08-07T03:59:13.320Z,99863.53
2022-08-07T04:01:48.283Z,99857.75
2022-08-07T04:04:23.782Z,99866.91
2022-08-07T04:07:00.097Z,99863.22
2022-08-07T04:09:44.711Z,99865.88
2022-08-07T04:12:25.500Z,99860.28
2022-08-07T04:14:58.395Z,99870.75
2022-08-07T04:18:04.602Z,99875.59
2022-08-07T04:20:21.389Z,99890.47
2022-08-07T04:23:01.577Z,99883.81
2022-08-07T04:25:35.850Z,99890.13
2022-08-07T04:28:10.415Z,99893.75
2022-08-07T04:30:55.526Z,99899.25
2022-08-07T04:33:35.391Z,99901.72
2022-08-07T04:36:08.918Z,99890.00
2022-08-07T04:38:40.294Z,99875.44
2022-08-07T04:41:18.273Z,99887.53
2022-08-07T04:44:14.436Z,99898.94
2022-08-07T04:47:04.690Z,99890.53
2022-08-07T04:49:57.329Z,99887.16
2022-08-07T04:52:52.212Z,99896.47
2022-08-07T04:58:16.617Z,99887.03
2022-08-07T04:58:49.761Z,99892.16
2022-08-07T05:01:31.988Z,99906.25
2022-08-07T05:04:17.162Z,99901.13
2022-08-07T05:06:59.454Z,99898.34
2022-08-07T05:09:46.063Z,99910.78
2022-08-07T05:12:27.228Z,99896.97
2022-08-07T05:15:23.382Z,99899.81
2022-08-07T05:18:09.351Z,99902.47
2022-08-07T05:20:45.343Z,99899.78
2022-08-07T05:23:19.390Z,99894.81
2022-08-07T05:26:12.974Z,99894.47
2022-08-07T05:28:49.990Z,99881.94
2022-08-07T05:31:24.373Z,99893.59
2022-08-07T05:34:05.870Z,99900.81
2022-08-07T05:36:43.690Z,99889.56
2022-08-07T05:40:05.753Z,99897.16
2022-08-07T05:42:34.925Z,99919.03
2022-08-07T05:45:25.808Z,99916.72
2022-08-07T05:48:03.277Z,99914.06
2022-08-07T05:50:50.759Z,99910.59
2022-08-07T05:54:13.381Z,99917.03
2022-08-07T05:56:12.366Z,99897.50
2022-08-07T05:58:52.321Z,99927.28
2022-08-07T06:01:25.918Z,99924.28
2022-08-07T06:04:00.896Z,99919.69
2022-08-07T06:06:38.289Z,99919.53
2022-08-07T06:09:16.912Z,99926.41
2022-08-07T06:11:49.335Z,99928.44
2022-08-07T06:14:28.842Z,99929.94
2022-08-07T06:17:07.342Z,99908.53
2022-08-07T06:19:52.299Z,99916.34
2022-08-07T06:22:38.707Z,99922.41
2022-08-07T06:25:24.539Z,99901.88
2022-08-07T06:28:04.191Z,99904.47
2022-08-07T06:30:41.351Z,99850.34
2022-08-07T06:33:16.007Z,99909.22
2022-08-07T06:36:06.120Z,99897.28
2022-08-07T06:38:36.824Z,99910.59
2022-08-07T06:41:13.013Z,99908.75
2022-08-07T06:43:59.550Z,99921.97
2022-08-07T06:46:38.099Z,99926.53
2022-08-07T06:49:12.792Z,99887.13
2022-08-07T06:51:50.049Z,99891.44
2022-08-07T06:55:34.103Z,99927.44
2022-08-07T06:57:13.720Z,99914.28
2022-08-07T07:00:13.580Z,99907.38
2022-08-07T07:02:54.569Z,99935.94
2022-08-07T07:06:04.973Z,99896.59
2022-08-07T07:08:18.905Z,99877.41
2022-08-07T07:10:56.910Z,99935.09
2022-08-07T07:13:56.245Z,99938.84
2022-08-07T07:16:30.523Z,99928.13
2022-08-07T07:19:34.123Z,99924.25
2022-08-07T07:22:04.785Z,99933.03
2022-08-07T07:24:56.650Z,99900.94
2022-08-07T07:27:35.708Z,99944.94
2022-08-07T07:30:32.610Z,99950.25
2022-08-07T07:33:11.812Z,99943.81
2022-08-07T07:36:04.819Z,99937.25
2022-08-07T07:38:35.804Z,99929.56
2022-08-07T07:41:09.250Z,99943.00
2022-08-07T07:44:14.637Z,99930.31
2022-08-07T07:46:53.604Z,99932.22
2022-08-07T07:50:34.296Z,99938.41
2022-08-07T07:52:19.967Z,99937.78
2022-08-07T07:54:52.193Z,99936.75
2022-08-07T07:57:29.088Z,99936.69
2022-08-07T08:00:20.739Z,99931.53
2022-08-07T08:03:04.621Z,99945.19
2022-08-07T08:05:42.888Z,99938.94
2022-08-07T08:08:35.037Z,99939.56
2022-08-07T08:11:16.621Z,99941.94
2022-08-07T08:13:58.661Z,99944.34
2022-08-07T08:16:35.162Z,99941.63
2022-08-07T08:19:18.187Z,99943.09
2022-08-07T08:22:13.646Z,99949.41
2022-08-07T08:25:18.371Z,99942.81
2022-08-07T08:27:56.475Z,99949.19
2022-08-07T08:30:34.608Z,99951.44
2022-08-07T08:33:10.613Z,99942.41
2022-08-07T08:35:50.587Z,99955.06
2022-08-07T08:38:29.617Z,99945.97
2022-08-07T08:41:07.085Z,99944.78
2022-08-07T08:43:42.107Z,99935.25
2022-08-07T08:46:20.407Z,99945.38
2022-08-07T08:48:59.641Z,99938.19
2022-08-07T08:52:00.819Z,99945.16
2022-08-07T08:54:27.511Z,99940.44
2022-08-07T08:57:02.281Z,99933.84
2022-08-07T08:59:48.237Z,99936.06
2022-08-07T09:02:35.002Z,99945.31
2022-08-07T09:05:36.623Z,99938.25
2022-08-07T09:08:39.290Z,99939.84
2022-08-07T09:11:24.261Z,99944.25
2022-08-07T09:14:11.636Z,99951.38
2022-08-07T09:17:01.707Z,99942.31
2022-08-07T09:19:57.636Z,99940.13
2022-08-07T09:24:33.365Z,99921.44
2022-08-07T09:25:39.881Z,99938.84
2022-08-07T09:30:04.470Z,99946.00
2022-08-07T09:31:11.899Z,99943.97
2022-08-07T09:34:02.084Z,99943.72
2022-08-07T09:36:37.266Z,99941.06
2022-08-07T09:39:54.189Z,99935.66
2022-08-07T09:42:32.918Z,99936.06
2022-08-07T09:47:24.754Z,99927.59
2022-08-07T09:48:15.095Z,99926.09
2022-08-07T09:50:57.406Z,99933.22
2022-08-07T09:53:40.915Z,99927.50
2022-08-07T09:57:03.406Z,99920.88
2022-08-07T10:00:04.836Z,99929.69
2022-08-07T10:04:06.578Z,99935.09
2022-08-07T10:06:30.671Z,99935.69
2022-08-07T10:10:00.217Z,99927.78
2022-08-07T10:12:53.678Z,99926.31
2022-08-07T10:15:46.366Z,99914.91
2022-08-07T10:19:00.840Z,99913.00
2022-08-07T10:22:15.036Z,99922.47
2022-08-07T10:24:51.225Z,99922.16
2022-08-07T10:27:46.448Z,99924.19
2022-08-07T10:30:19.260Z,99928.94
2022-08-07T10:34:14.079Z,99915.75
2022-08-07T10:36:30.221Z,99911.88
2022-08-07T10:39:19.058Z,99913.59
2022-08-07T10:42:09.293Z,99913.53
2022-08-07T10:44:54.689Z,99919.78
2022-08-07T10:47:53.296Z,99914.03
2022-08-07T10:50:26.725Z,99905.72
2022-08-07T10:53:08.322Z,99908.66
2022-08-07T10:55:46.603Z,99914.16
2022-08-07T10:58:36.645Z,99900.59
2022-08-07T11:01:35.728Z,99907.00
2022-08-07T11:04:32.239Z,99906.94
2022-08-07T11:07:24.739Z,99910.22
2022-08-07T11:10:07.568Z,99907.31
2022-08-07T11:12:49.285Z,99895.50
2022-08-07T11:15:35.545Z,99907.09
2022-08-07T11:18:12.482Z,99898.38
2022-08-07T11:20:49.748Z,99884.69
2022-08-07T11:23:30.325Z,99890.72
2022-08-07T11:26:13.157Z,99890.38
2022-08-07T11:28:53.524Z,99889.56
2022-08-07T11:31:35.030Z,99890.81
2022-08-07T11:34:11.658Z,99874.22
2022-08-07T11:36:57.915Z,99878.47
2022-08-07T11:39:59.757Z,99871.09
2022-08-07T11:42:43.982Z,99874.66
2022-08-07T11:45:35.536Z,99872.91
2022-08-07T11:48:29.755Z,99867.38
2022-08-07T11:51:41.938Z,99868.72
2022-08-07T11:54:54.753Z,99855.59
2022-08-07T11:57:59.757Z,99841.28
2022-08-07T12:00:35.888Z,99853.53
2022-08-07T12:03:47.942Z,99838.75
2022-08-07T12:06:37.211Z,99843.59
2022-08-07T12:09:16.526Z,99848.97
2022-08-07T12:12:10.610Z,99850.88
2022-08-07T12:14:56.416Z,99851.94
2022-08-07T12:17:58.728Z,99850.22
2022-08-07T12:20:32.705Z,99840.94
2022-08-07T12:23:21.383Z,99844.53
2022-08-07T12:26:23.002Z,99834.72
2022-08-07T12:29:02.540Z,99820.78
2022-08-07T12:32:02.253Z,99822.88
2022-08-07T12:34:31.482Z,99833.34
2022-08-07T12:37:02.182Z,99819.75
2022-08-07T12:39:43.305Z,99826.66
2022-08-07T12:42:14.352Z,99829.09
2022-08-07T12:44:49.171Z,99822.38
2022-08-07T12:47:26.987Z,99819.53
2022-08-07T12:50:39.236Z,99818.47
2022-08-07T12:53:17.891Z,99818.91
2022-08-07T12:56:02.626Z,99802.19
2022-08-07T12:58:39.807Z,99797.25
2022-08-07T13:01:18.415Z,99812.25
2022-08-07T13:04:04.428Z,99816.97
2022-08-07T13:07:01.867Z,99813.06
2022-08-07T13:10:20.150Z,99797.22
2022-08-07T13:12:52.001Z,99802.91
2022-08-07T13:15:31.916Z,99801.63
2022-08-07T13:18:25.884Z,99801.59
2022-08-07T13:21:03.635Z,99781.06
2022-08-07T13:24:01.898Z,99797.69
2022-08-07T13:26:41.902Z,99793.06
2022-08-07T13:29:18.521Z,99788.84
2022-08-07T13:31:57.291Z,99793.44
2022-08-07T13:34:36.817Z,99787.66
2022-08-07T13:37:20.082Z,99787.38
2022-08-07T13:40:35.838Z,99787.03
2022-08-07T13:42:55.883Z,99780.06
2022-08-07T13:46:12.195Z,99778.38
2022-08-07T13:48:27.885Z,99775.84
2022-08-07T13:51:26.970Z,99777.03
2022-08-07T13:54:00.688Z,99773.75
2022-08-07T13:56:36.105Z,99777.63
2022-08-07T13:59:13.956Z,99767.69
2022-08-07T14:02:03.647Z,99770.25
2022-08-07T14:04:38.025Z,99771.47
2022-08-07T14:07:18.203Z,99764.75
2022-08-07T14:10:12.451Z,99771.19
2022-08-07T14:12:49.334Z,99765.59
2022-08-07T14:15:34.998Z,99774.00
2022-08-07T14:18:27.444Z,99773.53
2022-08-07T14:21:08.206Z,99776.81
2022-08-07T14:24:00.826Z,99767.31
2022-08-07T14:26:40.604Z,99764.38
2022-08-07T14:30:05.724Z,99767.25
2022-08-07T14:32:21.058Z,99746.66
2022-08-07T14:34:55.615Z,99766.16
2022-08-07T14:37:36.184Z,99767.00
2022-08-07T14:40:17.991Z,99752.53
2022-08-07T14:43:00.840Z,99763.59
2022-08-07T14:45:51.382Z,99756.63
2022-08-07T14:48:27.638Z,99774.66
2022-08-07T14:51:00.099Z,99751.03
2022-08-07T14:54:08.849Z,99762.31
2022-08-07T14:56:29.755Z,99775.47
2022-08-07T14:59:13.727Z,99782.97
2022-08-07T15:01:58.242Z,99772.94
2022-08-07T15:04:28.981Z,99754.06
2022-08-07T15:12:44.062Z,99754.59
2022-08-07T15:15:27.651Z,99761.25
2022-08-07T15:18:14.262Z,99754.09
2022-08-07T15:21:03.972Z,99767.00
2022-08-07T15:25:02.366Z,99756.69
2022-08-07T15:26:37.722Z,99746.19
2022-08-07T15:30:10.913Z,99738.00
2022-08-07T15:32:05.012Z,99754.41
2022-08-07T15:34:50.731Z,99743.16
2022-08-07T15:37:29.434Z,99747.13
2022-08-07T15:40:33.825Z,99735.94
2022-08-07T15:43:53.153Z,99741.81
2022-08-07T15:46:31.902Z,99739.47
2022-08-07T15:49:14.508Z,99726.59
2022-08-07T15:54:39.697Z,99729.75
2022-08-07T15:57:28.183Z,99725.13
2022-08-07T16:00:04.467Z,99717.88
2022-08-07T16:02:45.755Z,99719.13
2022-08-07T16:05:19.745Z,99725.31
2022-08-07T16:08:30.325Z,99726.75
2022-08-07T16:10:48.506Z,99731.19
2022-08-07T16:13:58.928Z,99716.69
2022-08-07T16:16:47.718Z,99726.59
2022-08-07T16:19:42.531Z,99730.31
2022-08-07T16:22:37.888Z,99728.75
2022-08-07T16:25:23.218Z,99733.28
2022-08-07T16:28:12.758Z,99726.53
2022-08-07T16:31:06.042Z,99728.31
2022-08-07T16:34:01.834Z,99723.19
2022-08-07T16:36:47.868Z,99701.91
2022-08-07T16:39:55.915Z,99720.63
2022-08-07T16:42:53.890Z,99727.03
2022-08-07T16:46:40.758Z,99725.69
2022-08-07T16:50:28.730Z,99711.53
2022-08-07T16:52:52.066Z,99722.19
2022-08-07T16:55:14.860Z,99721.13
2022-08-07T16:58:04.099Z,99720.88
2022-08-07T17:00:42.141Z,99729.41
2022-08-07T17:03:19.019Z,99719.50
2022-08-07T17:06:29.573Z,99717.28
2022-08-07T17:09:13.909Z,99715.88
2022-08-07T17:12:04.936Z,99713.38
2022-08-07T17:14:50.428Z,99714.34
2022-08-07T17:17:44.087Z,99720.06
2022-08-07T17:20:29.733Z,99717.84
2022-08-07T17:23:08.575Z,99710.47
2022-08-07T17:25:52.736Z,99699.69
2022-08-07T17:28:32.536Z,99705.78
2022-08-07T17:31:16.157Z,99712.91
2022-08-07T17:34:32.794Z,99711.00
2022-08-07T17:36:57.936Z,99716.66
2022-08-07T17:39:58.614Z,99716.63
2022-08-07T17:42:59.543Z,99704.47
2022-08-07T17:45:35.176Z,99722.03
2022-08-07T17:48:12.799Z,99728.47
2022-08-07T17:50:58.203Z,99719.78
2022-08-07T17:54:01.333Z,99725.06
2022-08-07T17:56:31.473Z,99733.78
2022-08-07T17:59:06.952Z,99724.31
2022-08-07T18:01:48.613Z,99725.25
2022-08-07T18:04:34.822Z,99735.75
2022-08-07T18:07:20.130Z,99716.72
2022-08-07T18:10:07.667Z,99728.16
2022-08-07T18:13:15.294Z,99724.94
2022-08-07T18:15:56.855Z,99714.00
2022-08-07T18:21:01.892Z,99719.66
2022-08-07T18:21:51.602Z,99725.94
2022-08-07T18:24:34.664Z,99735.63
2022-08-07T18:27:39.017Z,99739.78
2022-08-07T18:30:31.719Z,99731.16
2022-08-07T18:33:55.017Z,99725.19
2022-08-07T18:36:39.961Z,99745.50
2022-08-07T18:40:07.124Z,99742.50
2022-08-07T18:42:17.494Z,99745.25
2022-08-07T18:45:44.467Z,99730.13
2022-08-07T18:48:01.050Z,99736.06
2022-08-07T18:50:54.697Z,99735.28
2022-08-07T18:53:39.792Z,99752.63
2022-08-07T18:56:21.040Z,99757.56
2022-08-07T18:59:47.086Z,99752.03
2022-08-07T19:02:18.325Z,99750.88
2022-08-07T19:05:15.631Z,99761.03
2022-08-07T19:07:58.756Z,99754.91
2022-08-07T19:10:49.538Z,99752.22
2022-08-07T19:13:27.696Z,99755.88
2022-08-07T19:16:04.728Z,99758.72
2022-08-07T19:19:00.184Z,99759.22
2022-08-07T19:21:43.944Z,99767.06
2022-08-07T19:24:31.012Z,99768.97
2022-08-07T19:28:59.068Z,99775.75
2022-08-07T19:30:55.492Z,99778.19
2022-08-07T19:32:59.263Z,99773.47
2022-08-07T19:35:33.279Z,99772.84
2022-08-07T19:38:15.916Z,99785.38
2022-08-07T19:40:50.065Z,99782.28
2022-08-07T19:43:48.979Z,99769.88
2022-08-07T19:46:15.685Z,99780.34
2022-08-07T19:48:53.776Z,99781.13
2022-08-07T19:51:52.068Z,99797.16
2022-08-07T19:54:33.335Z,99788.03
2022-08-07T19:58:02.864Z,99794.19
2022-08-07T20:00:02.147Z,99792.31
2022-08-07T20:02:39.349Z,99797.84
2022-08-07T20:05:13.739Z,99793.03
2022-08-07T20:07:50.692Z,99802.81
2022-08-07T20:10:35.995Z,99784.44
2022-08-07T20:13:23.841Z,99802.56
2022-08-07T20:15:58.396Z,99794.66
2022-08-07T20:18:32.894Z,99810.28
2022-08-07T20:21:21.063Z,99807.75
2022-08-07T20:23:54.917Z,99810.19
2022-08-07T20:26:38.753Z,99809.31
2022-08-07T20:29:49.293Z,99807.59
2022-08-07T20:32:11.433Z,99820.31
2022-08-07T20:34:53.251Z,99828.44
2022-08-07T20:37:29.537Z,99828.38
2022-08-07T20:40:02.219Z,99832.56
2022-08-07T20:42:33.654Z,99834.97
2022-08-07T20:45:33.070Z,99838.28
2022-08-07T20:47:58.775Z,99847.53
2022-08-07T20:50:30.567Z,99832.63
2022-08-07T20:52:59.810Z,99844.28
2022-08-07T20:55:32.012Z,99843.22
2022-08-07T20:58:12.084Z,99852.59
2022-08-07T21:00:56.260Z,99848.41
2022-08-07T21:03:27.915Z,99843.53
2022-08-07T21:06:21.433Z,99840.63
2022-08-07T21:09:01.902Z,99854.19
2022-08-07T21:11:46.143Z,99854.31
2022-08-07T21:14:33.184Z,99866.59
2022-08-07T21:18:02.308Z,99874.38
2022-08-07T21:20:04.857Z,99861.94
2022-08-07T21:22:44.777Z,99879.75
2022-08-07T21:25:29.211Z,99879.56
2022-08-07T21:28:13.429Z,99871.56
2022-08-07T21:30:56.330Z,99885.34
2022-08-07T21:33:41.384Z,99879.56
2022-08-07T21:36:31.861Z,99883.22
2022-08-07T21:39:46.758Z,99875.03
2022-08-07T21:42:37.501Z,99880.38
2022-08-07T21:45:30.779Z,99893.94
2022-08-07T21:48:08.529Z,99879.06
2022-08-07T21:51:04.084Z,99887.50
2022-08-07T21:53:46.419Z,99878.59
2022-08-07T21:56:35.871Z,99887.69
2022-08-07T21:59:09.534Z,99883.56
2022-08-07T22:02:07.371Z,99873.09
2022-08-07T22:04:41.558Z,99886.41
2022-08-07T22:07:31.275Z,99866.56
2022-08-07T22:10:08.312Z,99887.25
2022-08-07T22:12:43.144Z,99884.66
2022-08-07T22:16:44.425Z,99882.50
2022-08-07T22:18:11.126Z,99884.94
2022-08-07T22:20:50.001Z,99885.09
2022-08-07T22:23:25.652Z,99881.84
2022-08-07T22:26:04.936Z,99879.22
2022-08-07T22:28:41.137Z,99880.41
2022-08-07T22:31:56.477Z,99878.41
2022-08-07T22:34:28.719Z,99868.94
2022-08-07T22:37:09.471Z,99882.00
2022-08-07T22:39:51.702Z,99868.25
2022-08-07T22:42:29.655Z,99880.88
2022-08-07T22:45:03.586Z,99876.56
2022-08-07T22:47:59.874Z,99849.41
2022-08-07T22:50:58.835Z,99882.22
2022-08-07T22:54:05.431Z,99835.13
2022-08-07T22:56:35.922Z,99881.13
2022-08-07T22:59:36.134Z,99878.78
2022-08-07T23:02:27.540Z,99874.84
2022-08-07T23:06:08.220Z,99879.78
2022-08-07T23:08:30.721Z,99881.66
2022-08-07T23:11:13.193Z,99864.78
2022-08-07T23:14:09.062Z,99881.44
2022-08-07T23:17:04.418Z,99884.53
2022-08-07T23:20:07.401Z,99887.25
2022-08-07T23:22:49.484Z,99873.50
2022-08-07T23:25:33.774Z,99876.38
2022-08-07T23:28:29.072Z,99891.63
2022-08-07T23:31:18.617Z,99881.03
2022-08-07T23:34:39.489Z,99881.03
2022-08-07T23:37:30.775Z,99869.16
2022-08-07T23:40:12.385Z,99883.34
2022-08-07T23:42:56.283Z,99868.78
2022-08-07T23:45:33.518Z,99880.88
2022-08-07T23:48:36.346Z,99882.22
2022-08-07T23:52:57.147Z,99877.06
2022-08-07T23:54:05.497Z,99877.25
2022-08-07T23:56:53.954Z,99872.47
